Time,TemperatureF,DewpointF,PressureIn,WindDirection,WindDirectionDegrees,WindSpeedMPH,WindSpeedGustMPH,Humidity,HourlyPrecipIn,Conditions,Clouds,dailyrainin,SolarRadiationWatts/m^2,SoftwareType,DateUTC
2013-04-02 00:03:00,33.0,7.0,-100.00,NW,312,11.0,21.0,33,0.00,,,0.00,309.000000,,2013-04-02 00:03:00,
2013-04-02 00:12:00,30.0,6.0,-100.00,NW,310,7.0,20.0,35,0.00,,,0.00,112.000000,,2013-04-02 00:12:00,
2013-04-02 00:33:00,30.0,6.0,-100.00,NW,310,7.0,20.0,35,0.00,,,0.00,112.000000,,2013-04-02 00:33:00,
2013-04-02 00:43:00,30.0,6.0,-100.00,NW,310,7.0,20.0,35,0.00,,,0.00,112.000000,,2013-04-02 00:43:00,
2013-04-02 00:53:00,30.0,6.0,-100.00,NW,310,7.0,20.0,35,0.00,,,0.00,112.000000,,2013-04-02 00:53:00,
2013-04-02 01:02:00,30.0,6.0,-100.00,NW,310,7.0,20.0,35,0.00,,,0.00,112.000000,,2013-04-02 01:02:00,
2013-04-02 01:12:00,29.0,11.0,-100.00,West,281,6.0,13.0,46,0.00,,,0.00,3.000000,,2013-04-02 01:12:00,
2013-04-02 01:43:00,29.0,11.0,-100.00,West,281,6.0,13.0,46,0.00,,,0.00,3.000000,,2013-04-02 01:43:00,
2013-04-02 01:53:00,29.0,11.0,-100.00,West,281,6.0,13.0,46,0.00,,,0.00,3.000000,,2013-04-02 01:53:00,
2013-04-02 02:02:00,29.0,11.0,-100.00,West,281,6.0,13.0,46,0.00,,,0.00,3.000000,,2013-04-02 02:02:00,
2013-04-02 02:12:00,28.0,11.0,-100.00,West,277,6.0,11.0,49,0.00,,,0.00,0.000000,,2013-04-02 02:12:00,
2013-04-02 02:43:00,28.0,11.0,-100.00,West,277,6.0,11.0,49,0.00,,,0.00,0.000000,,2013-04-02 02:43:00,
2013-04-02 02:53:00,28.0,11.0,-100.00,West,277,6.0,11.0,49,0.00,,,0.00,0.000000,,2013-04-02 02:53:00,
2013-04-02 03:02:00,28.0,11.0,-100.00,West,277,6.0,11.0,49,0.00,,,0.00,0.000000,,2013-04-02 03:02:00,
2013-04-02 03:12:00,27.0,11.0,-100.00,West,272,4.0,13.0,50,0.00,,,0.00,0.000000,,2013-04-02 03:12:00,
2013-04-02 03:33:00,27.0,11.0,-100.00,West,272,4.0,13.0,50,0.00,,,0.00,0.000000,,2013-04-02 03:33:00,
2013-04-02 03:43:00,27.0,11.0,-100.00,West,272,4.0,13.0,50,0.00,,,0.00,0.000000,,2013-04-02 03:43:00,
2013-04-02 03:53:00,27.0,11.0,-100.00,West,272,4.0,13.0,50,0.00,,,0.00,0.000000,,2013-04-02 03:53:00,
2013-04-02 04:03:00,27.0,11.0,-100.00,West,272,4.0,13.0,50,0.00,,,0.00,0.000000,,2013-04-02 04:03:00,
2013-04-02 04:12:00,26.0,11.0,-100.00,West,271,4.0,10.0,52,0.00,,,0.00,0.000000,,2013-04-02 04:12:00,
2013-04-02 04:43:00,26.0,11.0,-100.00,West,271,4.0,10.0,52,0.00,,,0.00,0.000000,,2013-04-02 04:43:00,
2013-04-02 04:53:00,26.0,11.0,-100.00,West,271,4.0,10.0,52,0.00,,,0.00,0.000000,,2013-04-02 04:53:00,
2013-04-02 05:02:00,26.0,11.0,-100.00,West,271,4.0,10.0,52,0.00,,,0.00,0.000000,,2013-04-02 05:02:00,
2013-04-02 05:12:00,25.0,12.0,-100.00,West,275,3.0,8.0,56,0.00,,,0.00,0.000000,,2013-04-02 05:12:00,
2013-04-02 05:43:00,25.0,12.0,-100.00,West,275,3.0,8.0,56,0.00,,,0.00,0.000000,,2013-04-02 05:43:00,
2013-04-02 05:52:00,25.0,12.0,-100.00,West,275,3.0,8.0,56,0.00,,,0.00,0.000000,,2013-04-02 05:52:00,
2013-04-02 06:02:00,25.0,12.0,-100.00,West,275,3.0,8.0,56,0.00,,,0.00,0.000000,,2013-04-02 06:02:00,
2013-04-02 06:12:00,23.0,12.0,-100.00,West,265,1.0,5.0,61,0.00,,,0.00,0.000000,,2013-04-02 06:12:00,
2013-04-02 06:32:00,23.0,12.0,-100.00,West,265,1.0,5.0,61,0.00,,,0.00,0.000000,,2013-04-02 06:32:00,
2013-04-02 06:42:00,23.0,12.0,-100.00,West,265,1.0,5.0,61,0.00,,,0.00,0.000000,,2013-04-02 06:42:00,
2013-04-02 06:52:00,23.0,12.0,-100.00,West,265,1.0,5.0,61,0.00,,,0.00,0.000000,,2013-04-02 06:52:00,
2013-04-02 07:02:00,23.0,12.0,-100.00,West,265,1.0,5.0,61,0.00,,,0.00,0.000000,,2013-04-02 07:02:00,
2013-04-02 08:12:00,23.0,12.0,-100.00,WNW,285,4.0,8.0,61,-99.99,,,0.00,0.000000,,2013-04-02 08:12:00,
2013-04-02 08:43:00,23.0,12.0,-100.00,WNW,285,4.0,8.0,61,-99.99,,,0.00,0.000000,,2013-04-02 08:43:00,
2013-04-02 08:52:00,23.0,12.0,-100.00,WNW,285,4.0,8.0,61,-99.99,,,0.00,0.000000,,2013-04-02 08:52:00,
2013-04-02 09:02:00,23.0,12.0,-100.00,WNW,285,4.0,8.0,61,-99.99,,,0.00,0.000000,,2013-04-02 09:02:00,
2013-04-02 09:12:00,22.0,11.0,-100.00,WNW,290,5.0,9.0,63,0.00,,,0.00,0.000000,,2013-04-02 09:12:00,
2013-04-02 09:33:00,22.0,11.0,-100.00,WNW,290,5.0,9.0,63,0.00,,,0.00,0.000000,,2013-04-02 09:33:00,
2013-04-02 09:43:00,22.0,11.0,-100.00,WNW,290,5.0,9.0,63,0.00,,,0.00,0.000000,,2013-04-02 09:43:00,
2013-04-02 09:53:00,22.0,11.0,-100.00,WNW,290,5.0,9.0,63,0.00,,,0.00,0.000000,,2013-04-02 09:53:00,
2013-04-02 10:03:00,22.0,11.0,-100.00,WNW,290,5.0,9.0,63,0.00,,,0.00,0.000000,,2013-04-02 10:03:00,
2013-04-02 10:12:00,22.0,11.0,-100.00,WNW,291,6.0,10.0,62,0.00,,,0.00,0.000000,,2013-04-02 10:12:00,
2013-04-02 10:33:00,22.0,11.0,-100.00,WNW,291,6.0,10.0,62,0.00,,,0.00,0.000000,,2013-04-02 10:33:00,
2013-04-02 10:42:00,22.0,11.0,-100.00,WNW,291,6.0,10.0,62,0.00,,,0.00,0.000000,,2013-04-02 10:42:00,
2013-04-02 10:52:00,22.0,11.0,-100.00,WNW,291,6.0,10.0,62,0.00,,,0.00,0.000000,,2013-04-02 10:52:00,
2013-04-02 11:02:00,22.0,11.0,-100.00,WNW,291,6.0,10.0,62,0.00,,,0.00,0.000000,,2013-04-02 11:02:00,
2013-04-02 11:12:00,21.0,11.0,-100.00,West,281,4.0,12.0,64,0.00,,,0.00,0.000000,,2013-04-02 11:12:00,
2013-04-02 11:33:00,21.0,11.0,-100.00,West,281,4.0,12.0,64,0.00,,,0.00,0.000000,,2013-04-02 11:33:00,
2013-04-02 11:43:00,21.0,11.0,-100.00,West,281,4.0,12.0,64,0.00,,,0.00,0.000000,,2013-04-02 11:43:00,
2013-04-02 11:53:00,21.0,11.0,-100.00,West,281,4.0,12.0,64,0.00,,,0.00,0.000000,,2013-04-02 11:53:00,
2013-04-02 12:02:00,21.0,11.0,-100.00,West,281,4.0,12.0,64,0.00,,,0.00,0.000000,,2013-04-02 12:02:00,
2013-04-02 13:12:00,25.0,12.0,-100.00,WNW,295,8.0,12.0,56,-99.99,,,0.00,166.000000,,2013-04-02 13:12:00,
2013-04-02 13:42:00,25.0,12.0,-100.00,WNW,295,8.0,12.0,56,-99.99,,,0.00,166.000000,,2013-04-02 13:42:00,
2013-04-02 13:52:00,25.0,12.0,-100.00,WNW,295,8.0,12.0,56,-99.99,,,0.00,166.000000,,2013-04-02 13:52:00,
2013-04-02 14:02:00,25.0,12.0,-100.00,WNW,295,8.0,12.0,56,-99.99,,,0.00,166.000000,,2013-04-02 14:02:00,
2013-04-02 14:43:00,29.0,12.0,-100.00,WNW,302,7.0,12.0,49,0.00,,,0.00,367.000000,,2013-04-02 14:43:00,
2013-04-02 14:52:00,29.0,12.0,-100.00,WNW,302,7.0,12.0,49,0.00,,,0.00,367.000000,,2013-04-02 14:52:00,
2013-04-02 15:02:00,29.0,12.0,-100.00,WNW,302,7.0,12.0,49,0.00,,,0.00,367.000000,,2013-04-02 15:02:00,
2013-04-02 15:11:00,29.0,12.0,-100.00,WNW,302,7.0,12.0,49,0.00,,,0.00,367.000000,,2013-04-02 15:11:00,
2013-04-02 15:12:00,31.0,12.0,-100.00,WNW,301,8.0,12.0,45,0.00,,,0.00,572.000000,,2013-04-02 15:12:00,
2013-04-02 15:33:00,31.0,12.0,-100.00,WNW,301,8.0,12.0,45,0.00,,,0.00,572.000000,,2013-04-02 15:33:00,
2013-04-02 15:43:00,31.0,12.0,-100.00,WNW,301,8.0,12.0,45,0.00,,,0.00,572.000000,,2013-04-02 15:43:00,
2013-04-02 15:58:00,31.0,12.0,-100.00,WNW,301,8.0,12.0,45,0.00,,,0.00,572.000000,,2013-04-02 15:58:00,
2013-04-02 16:04:00,31.0,12.0,-100.00,WNW,301,8.0,12.0,45,0.00,,,0.00,572.000000,,2013-04-02 16:04:00,
2013-04-02 16:12:00,34.0,13.0,-100.00,WNW,291,6.0,12.0,41,0.00,,,-99.99,722.000000,,2013-04-02 16:12:00,
2013-04-02 16:44:00,34.0,13.0,-100.00,WNW,291,6.0,12.0,41,0.00,,,-99.99,722.000000,,2013-04-02 16:44:00,
2013-04-02 16:53:00,34.0,13.0,-100.00,WNW,291,6.0,12.0,41,0.00,,,-99.99,722.000000,,2013-04-02 16:53:00,
2013-04-02 17:05:00,34.0,13.0,-100.00,WNW,291,6.0,12.0,41,0.00,,,-99.99,722.000000,,2013-04-02 17:05:00,
2013-04-02 17:12:00,35.0,11.0,-100.00,NW,310,10.0,19.0,37,0.00,,,0.00,843.000000,,2013-04-02 17:12:00,
2013-04-02 17:43:00,35.0,11.0,-100.00,NW,310,10.0,19.0,37,0.00,,,0.00,843.000000,,2013-04-02 17:43:00,
2013-04-02 17:55:00,35.0,11.0,-100.00,NW,310,10.0,19.0,37,0.00,,,0.00,843.000000,,2013-04-02 17:55:00,
2013-04-02 18:03:00,35.0,11.0,-100.00,NW,310,10.0,19.0,37,0.00,,,0.00,843.000000,,2013-04-02 18:03:00,
2013-04-02 18:12:00,36.0,10.0,-100.00,NW,309,12.0,23.0,33,0.00,,,0.00,880.000000,,2013-04-02 18:12:00,
2013-04-02 18:43:00,36.0,10.0,-100.00,NW,309,12.0,23.0,33,0.00,,,0.00,880.000000,,2013-04-02 18:43:00,
2013-04-02 18:57:00,36.0,10.0,-100.00,NW,309,12.0,23.0,33,0.00,,,0.00,880.000000,,2013-04-02 18:57:00,
2013-04-02 19:03:00,36.0,10.0,-100.00,NW,309,12.0,23.0,33,0.00,,,0.00,880.000000,,2013-04-02 19:03:00,
2013-04-02 19:12:00,36.0,8.0,-100.00,NW,321,11.0,19.0,30,0.00,,,0.00,861.000000,,2013-04-02 19:12:00,
2013-04-02 19:47:00,36.0,8.0,-100.00,NW,321,11.0,19.0,30,0.00,,,0.00,861.000000,,2013-04-02 19:47:00,
2013-04-02 19:57:00,36.0,8.0,-100.00,NW,321,11.0,19.0,30,0.00,,,0.00,861.000000,,2013-04-02 19:57:00,
2013-04-02 20:03:00,36.0,8.0,-100.00,NW,321,11.0,19.0,30,0.00,,,0.00,861.000000,,2013-04-02 20:03:00,
2013-04-02 20:12:00,38.0,11.0,-100.00,NW,320,10.0,20.0,32,0.00,,,0.00,817.000000,,2013-04-02 20:12:00,
2013-04-02 20:44:00,38.0,11.0,-100.00,NW,320,10.0,20.0,32,0.00,,,0.00,817.000000,,2013-04-02 20:44:00,
2013-04-02 20:54:00,38.0,11.0,-100.00,NW,320,10.0,20.0,32,0.00,,,0.00,817.000000,,2013-04-02 20:54:00,
2013-04-02 21:04:00,38.0,11.0,-100.00,NW,320,10.0,20.0,32,0.00,,,0.00,817.000000,,2013-04-02 21:04:00,
2013-04-02 22:12:00,37.0,8.0,-100.00,NW,305,10.0,19.0,29,-99.99,,,0.00,516.000000,,2013-04-02 22:12:00,
2013-04-02 22:34:00,37.0,8.0,-100.00,NW,305,10.0,19.0,29,-99.99,,,0.00,516.000000,,2013-04-02 22:34:00,
2013-04-02 22:44:00,37.0,8.0,-100.00,NW,305,10.0,19.0,29,-99.99,,,0.00,516.000000,,2013-04-02 22:44:00,
2013-04-02 22:54:00,37.0,8.0,-100.00,NW,305,10.0,19.0,29,-99.99,,,0.00,516.000000,,2013-04-02 22:54:00,
2013-04-02 23:03:00,37.0,8.0,-100.00,NW,305,10.0,19.0,29,-99.99,,,0.00,516.000000,,2013-04-02 23:03:00,
2013-04-02 23:12:00,36.0,8.0,-100.00,NW,312,8.0,19.0,31,0.00,,,0.00,306.000000,,2013-04-02 23:12:00,
2013-04-02 23:43:00,36.0,8.0,-100.00,NW,312,8.0,19.0,31,0.00,,,0.00,306.000000,,2013-04-02 23:43:00,
2013-04-02 23:54:00,36.0,8.0,-100.00,NW,312,8.0,19.0,31,0.00,,,0.00,306.000000,,2013-04-02 23:54:00,